Terminal Aerodrome Forecast
Issued by NWS

Home | Current Version | Previous Version | Graphics & Text | Print | Product List | Glossary On
Versions: 1 2 3 4 5 6 7 8 9 10 11 12 13
367
FTUS43 KUNR 091120
TAFGCC
TAF
KGCC 091120Z 0912/1012 29011KT P6SM FEW250
     FM091700 29017G27KT P6SM FEW250
     FM092300 28012KT P6SM SCT250=

USA.gov is the U.S. government's official web portal to all federal, state and local government web resources and services.